Time;durP1;ratioP1;P1;durP2;ratioP2;P2;SDS_P1;SDS_P2;PMS_P1;PMS_P2;Temp;Humidity;BMP_temperature;BMP_pressure;BME280_temperature;BME280_humidity;BME280_pressure;Samples;Min_cycle;Max_cycle;Signal;HPM_P1;HPM_P2
2023/01/29 00:00:40;;;;;;;5.97;4.43;;;6.50;70.20;6.20;97267.00;;;;4952930;28;20621;-89
2023/01/29 00:03:13;;;;;;;7.43;5.00;;;6.50;70.10;6.20;97270.00;;;;4953598;28;20303;-88
2023/01/29 00:05:44;;;;;;;4.77;4.30;;;6.50;70.00;6.20;97274.00;;;;4948689;28;20196;-88
2023/01/29 00:08:12;;;;;;;5.33;4.37;;;6.50;70.10;6.20;97276.00;;;;4948814;29;20599;-88
2023/01/29 00:10:46;;;;;;;4.57;4.17;;;6.50;69.90;6.20;97276.00;;;;4948806;28;20693;-89
2023/01/29 00:13:15;;;;;;;6.43;4.07;;;6.50;69.90;6.20;97275.00;;;;4948172;28;20298;-89
2023/01/29 00:15:53;;;;;;;8.07;4.80;;;6.50;70.00;6.20;97272.00;;;;4952027;28;20261;-89
2023/01/29 00:18:20;;;;;;;9.27;4.57;;;6.50;70.10;6.20;97276.00;;;;4945625;28;20219;-87
2023/01/29 00:20:48;;;;;;;4.90;3.80;;;6.50;70.00;6.20;97285.00;;;;4950925;28;20303;-88
2023/01/29 00:23:15;;;;;;;5.10;4.50;;;6.50;70.00;6.20;97282.00;;;;4950502;28;20200;-88
2023/01/29 00:25:43;;;;;;;4.77;4.30;;;6.50;69.80;6.20;97281.00;;;;4950878;28;20200;-88
2023/01/29 00:28:11;;;;;;;4.80;4.23;;;6.50;69.70;6.20;97281.00;;;;4951610;28;20207;-88
2023/01/29 00:30:40;;;;;;;5.60;4.33;;;6.50;69.70;6.20;97277.00;;;;4951304;28;20278;-87
2023/01/29 00:33:12;;;;;;;5.87;4.00;;;6.50;69.70;6.20;97274.00;;;;4934745;28;20244;-88
2023/01/29 00:35:50;;;;;;;6.73;3.90;;;6.50;69.80;6.20;97281.00;;;;4950519;28;20200;-88
2023/01/29 00:38:21;;;;;;;4.83;4.17;;;6.50;69.80;6.20;97272.00;;;;4949765;28;20559;-88
2023/01/29 00:46:25;;;;;;;6.77;4.10;;;6.50;69.70;6.20;97267.00;;;;4950687;29;20668;-88
2023/01/29 00:48:55;;;;;;;4.27;3.87;;;6.50;69.70;6.20;97266.00;;;;4950829;28;20242;-88
2023/01/29 00:51:35;;;;;;;4.23;3.83;;;6.50;69.70;6.10;97257.00;;;;4946067;28;20697;-88
2023/01/29 00:54:22;;;;;;;4.70;3.63;;;6.50;69.40;6.10;97263.00;;;;4954187;29;20228;-89
2023/01/29 00:57:04;;;;;;;4.23;3.80;;;6.40;69.30;6.10;97268.00;;;;4953173;28;20200;-88
2023/01/29 00:59:40;;;;;;;4.37;3.97;;;6.40;69.30;6.10;97263.00;;;;4948831;28;20199;-89
2023/01/29 01:05:02;;;;;;;6.17;3.50;;;6.40;69.40;6.10;97263.00;;;;4942744;29;20195;-89
2023/01/29 01:10:28;;;;;;;14.10;3.97;;;6.50;69.50;6.10;97275.00;;;;4953353;28;20203;-88
2023/01/29 01:13:01;;;;;;;4.37;3.10;;;6.40;69.30;6.20;97271.00;;;;4947802;28;20255;-88
2023/01/29 01:15:35;;;;;;;3.77;3.37;;;6.40;69.30;6.20;97267.00;;;;4953157;29;20211;-88
2023/01/29 01:18:15;;;;;;;3.23;2.93;;;6.50;69.40;6.20;97275.00;;;;4949518;28;20250;-89
2023/01/29 01:20:45;;;;;;;3.67;3.37;;;6.50;69.30;6.10;97275.00;;;;4953517;28;20290;-88
2023/01/29 01:23:15;;;;;;;3.80;3.50;;;6.40;69.10;6.10;97283.00;;;;4946866;28;20276;-88
2023/01/29 01:25:47;;;;;;;4.30;3.87;;;6.40;69.10;6.20;97277.00;;;;4935137;29;20288;-87
2023/01/29 01:28:14;;;;;;;4.87;3.80;;;6.50;69.20;6.20;97278.00;;;;4951605;28;20192;-88
2023/01/29 01:30:52;;;;;;;4.87;3.57;;;6.50;69.30;6.20;97268.00;;;;4953147;28;20227;-88
2023/01/29 01:33:25;;;;;;;5.67;3.57;;;6.40;69.30;6.20;97271.00;;;;4954541;29;20211;-87
2023/01/29 01:36:10;;;;;;;6.57;3.83;;;6.40;69.30;6.20;97280.00;;;;4953917;28;20594;-87
2023/01/29 01:38:50;;;;;;;4.57;4.00;;;6.50;69.30;6.20;97290.00;;;;4953217;28;20284;-87
2023/01/29 01:41:23;;;;;;;4.10;3.80;;;6.50;69.20;6.20;97274.00;;;;4953215;28;20639;-87
2023/01/29 01:44:06;;;;;;;5.43;3.97;;;6.50;69.20;6.10;97277.00;;;;4953569;29;20675;-87
2023/01/29 01:46:38;;;;;;;10.33;4.03;;;6.50;69.10;6.20;97272.00;;;;4953078;29;20685;-88
2023/01/29 01:49:20;;;;;;;6.77;4.07;;;6.50;69.10;6.10;97274.00;;;;4952823;28;20207;-87
2023/01/29 01:51:54;;;;;;;5.93;4.20;;;6.50;69.00;6.10;97266.00;;;;4952713;28;20219;-88
2023/01/29 01:54:28;;;;;;;4.23;3.83;;;6.50;69.00;6.10;97268.00;;;;4954434;28;20224;-88
2023/01/29 01:57:08;;;;;;;4.77;3.90;;;6.40;68.90;6.10;97269.00;;;;4954252;28;20264;-89
2023/01/29 01:59:48;;;;;;;3.07;2.80;;;6.40;68.90;6.10;97261.00;;;;4953004;28;20641;-89
2023/01/29 02:10:47;;;;;;;3.07;2.30;;;6.40;68.60;6.10;97263.00;;;;4953173;29;20199;-88
2023/01/29 02:13:17;;;;;;;3.73;2.63;;;6.40;68.50;6.10;97273.00;;;;4953172;29;20250;-88
2023/01/29 02:15:47;;;;;;;2.73;2.30;;;6.40;68.40;6.10;97273.00;;;;4952483;29;20230;-88
2023/01/29 02:18:17;;;;;;;7.80;2.73;;;6.40;68.40;6.10;97269.00;;;;4953421;28;20200;-88
2023/01/29 02:21:01;;;;;;;5.23;2.80;;;6.40;68.10;6.10;97260.00;;;;4954520;29;20204;-88
2023/01/29 02:24:13;;;;;;;11.90;3.60;;;6.40;68.10;6.20;97264.00;;;;4953778;28;20665;-88
2023/01/29 02:27:10;;;;;;;9.90;3.27;;;6.50;68.50;6.20;97269.00;;;;4950345;28;20234;-88
2023/01/29 02:30:01;;;;;;;5.03;3.10;;;6.50;68.50;6.20;97268.00;;;;4953363;28;20211;-88
2023/01/29 02:32:39;;;;;;;5.00;3.07;;;6.50;68.50;6.20;97260.00;;;;4953451;28;20255;-89
2023/01/29 02:35:30;;;;;;;3.50;3.20;;;6.50;68.50;6.20;97259.00;;;;4958271;28;20302;-88
2023/01/29 02:38:17;;;;;;;3.37;3.17;;;6.50;68.40;6.10;97246.00;;;;4952772;28;20258;-88
2023/01/29 02:40:55;;;;;;;3.70;3.40;;;6.50;68.00;6.10;97256.00;;;;4953946;28;21533;-88
2023/01/29 02:43:34;;;;;;;4.13;3.60;;;6.40;67.70;6.10;97254.00;;;;4952653;28;20204;-88
2023/01/29 02:46:14;;;;;;;3.83;3.53;;;6.50;67.50;6.10;97255.00;;;;4950982;29;20574;-88
2023/01/29 02:48:48;;;;;;;3.77;3.47;;;6.40;67.40;6.10;97240.00;;;;4952747;28;20663;-88
2023/01/29 02:51:28;;;;;;;7.13;3.80;;;6.40;67.50;6.10;97246.00;;;;4941803;28;20232;-89
2023/01/29 02:54:04;;;;;;;9.80;4.10;;;6.40;67.80;6.10;97256.00;;;;4952534;28;20223;-89
2023/01/29 02:56:38;;;;;;;6.03;4.00;;;6.40;68.20;6.10;97246.00;;;;4944626;28;20263;-89
2023/01/29 02:59:12;;;;;;;5.80;3.77;;;6.40;68.20;6.10;97247.00;;;;4949821;29;20224;-89
2023/01/29 03:01:48;;;;;;;7.77;4.57;;;6.40;68.00;6.10;97261.00;;;;4951625;28;20270;-89
2023/01/29 03:04:31;;;;;;;6.27;3.97;;;6.40;68.30;6.10;97256.00;;;;4951912;29;20200;-89
2023/01/29 03:07:03;;;;;;;4.63;4.33;;;6.40;68.40;6.10;97261.00;;;;4951466;29;20188;-89
2023/01/29 03:09:36;;;;;;;4.57;3.80;;;6.40;68.20;6.10;97263.00;;;;4949452;29;20261;-89
2023/01/29 03:12:27;;;;;;;12.53;4.37;;;6.40;67.90;6.10;97259.00;;;;4951457;28;20224;-89
2023/01/29 03:15:15;;;;;;;8.80;3.63;;;6.40;68.10;6.10;97262.00;;;;4947855;29;20216;-89
2023/01/29 03:17:50;;;;;;;6.37;3.70;;;6.30;68.30;6.10;97265.00;;;;4952856;29;20290;-89
2023/01/29 03:20:25;;;;;;;7.77;4.13;;;6.30;68.60;6.10;97252.00;;;;4952386;28;20200;-89
2023/01/29 03:23:01;;;;;;;8.80;4.27;;;6.30;68.70;6.10;97274.00;;;;4952408;28;20220;-89
2023/01/29 03:34:09;;;;;;;5.13;3.67;;;6.40;68.60;6.10;97257.00;;;;4952047;29;20245;-89
2023/01/29 03:36:44;;;;;;;9.67;4.10;;;6.40;68.70;6.10;97248.00;;;;4952472;29;20228;-89
2023/01/29 03:39:14;;;;;;;5.20;4.30;;;6.40;68.70;6.10;97246.00;;;;4952288;28;20206;-89
2023/01/29 03:41:53;;;;;;;4.57;4.17;;;6.40;68.80;6.10;97240.00;;;;4952480;28;20248;-89
2023/01/29 03:44:36;;;;;;;4.77;4.23;;;6.40;68.80;6.10;97231.00;;;;4951305;29;20214;-89
2023/01/29 03:47:18;;;;;;;4.83;4.13;;;6.40;68.40;6.00;97234.00;;;;4957768;28;20665;-89
2023/01/29 03:49:59;;;;;;;10.47;4.00;;;6.40;68.10;6.00;97225.00;;;;4948412;29;20317;-89
2023/01/29 03:52:41;;;;;;;4.63;4.23;;;6.40;68.00;6.00;97229.00;;;;4950181;28;20558;-89
2023/01/29 03:55:17;;;;;;;4.20;3.90;;;6.40;68.10;6.00;97230.00;;;;4946199;28;20306;-89
2023/01/29 03:57:54;;;;;;;5.20;4.47;;;6.30;68.00;6.10;97238.00;;;;4950396;28;20207;-89
2023/01/29 04:00:31;;;;;;;3.87;3.57;;;6.30;68.10;6.10;97238.00;;;;4951916;29;20208;-89
2023/01/29 04:03:08;;;;;;;3.17;2.93;;;6.40;68.30;6.10;97241.00;;;;4951782;28;20273;-88
2023/01/29 04:05:47;;;;;;;11.70;2.90;;;6.40;67.90;6.10;97242.00;;;;4950614;29;20207;-88
2023/01/29 04:08:23;;;;;;;4.40;3.20;;;6.40;67.60;6.10;97240.00;;;;4950697;28;20211;-89
2023/01/29 04:10:56;;;;;;;5.37;3.57;;;6.40;67.80;6.10;97241.00;;;;4951292;29;20206;-89
2023/01/29 04:13:28;;;;;;;4.13;3.53;;;6.40;67.70;6.10;97247.00;;;;4953525;29;20652;-89
2023/01/29 04:16:00;;;;;;;3.57;3.27;;;6.40;67.80;6.10;97236.00;;;;4952720;28;20234;-90
2023/01/29 04:18:27;;;;;;;4.90;3.50;;;6.40;67.90;6.10;97243.00;;;;4952485;29;20230;-90
2023/01/29 04:20:57;;;;;;;3.57;2.93;;;6.40;67.70;6.10;97249.00;;;;4953843;28;20722;-90
2023/01/29 04:23:27;;;;;;;3.87;2.73;;;6.40;67.50;6.10;97241.00;;;;4951811;29;20658;-90
2023/01/29 04:26:17;;;;;;;6.37;3.07;;;6.40;67.20;6.10;97236.00;;;;4949999;28;20255;-89
2023/01/29 04:29:02;;;;;;;6.50;3.40;;;6.40;67.20;6.10;97246.00;;;;4951536;29;20685;-88
2023/01/29 04:31:37;;;;;;;6.33;2.57;;;6.40;67.30;6.10;97244.00;;;;4951723;28;20278;-89
2023/01/29 04:34:18;;;;;;;8.90;3.37;;;6.50;67.50;6.10;97252.00;;;;4951162;29;20180;-89
2023/01/29 04:37:02;;;;;;;3.10;2.90;;;6.40;67.60;6.10;97247.00;;;;4950367;29;20231;-88
2023/01/29 04:39:39;;;;;;;8.30;3.37;;;6.50;67.60;6.10;97244.00;;;;4952876;29;20232;-88
2023/01/29 04:42:19;;;;;;;3.37;3.07;;;6.40;67.50;6.10;97246.00;;;;4952492;28;20216;-88
2023/01/29 04:44:58;;;;;;;3.37;2.97;;;6.40;67.60;6.10;97242.00;;;;4953114;29;20211;-88
2023/01/29 04:47:35;;;;;;;3.23;2.93;;;6.40;67.50;6.10;97241.00;;;;4951702;29;20188;-88
2023/01/29 04:50:23;;;;;;;7.30;2.87;;;6.40;67.40;6.10;97234.00;;;;4951409;29;20294;-87
2023/01/29 04:53:06;;;;;;;7.40;3.33;;;6.40;67.40;6.10;97238.00;;;;4950521;29;20252;-88
2023/01/29 04:55:43;;;;;;;5.53;2.80;;;6.40;67.60;6.10;97237.00;;;;4950574;28;20243;-88
2023/01/29 04:58:21;;;;;;;2.67;2.47;;;6.40;67.60;6.10;97248.00;;;;4953080;28;20211;-89
2023/01/29 05:00:54;;;;;;;2.57;2.30;;;6.40;67.20;6.10;97242.00;;;;4954237;28;20250;-89
2023/01/29 05:03:46;;;;;;;2.23;2.13;;;6.40;66.80;6.10;97241.00;;;;4950055;28;20224;-89
2023/01/29 05:06:15;;;;;;;2.60;2.40;;;6.40;66.90;6.10;97242.00;;;;4947087;28;20546;-89
2023/01/29 05:08:50;;;;;;;7.73;3.30;;;6.40;67.00;6.10;97243.00;;;;4951762;28;20208;-89
2023/01/29 05:11:30;;;;;;;2.90;2.60;;;6.40;66.90;6.10;97252.00;;;;4951977;28;21066;-88
2023/01/29 05:14:13;;;;;;;2.20;2.07;;;6.40;67.10;6.10;97264.00;;;;4951964;29;20289;-88
2023/01/29 05:16:47;;;;;;;2.93;2.60;;;6.40;67.10;6.10;97264.00;;;;4952311;29;20646;-89
2023/01/29 05:19:18;;;;;;;4.83;2.70;;;6.40;67.20;6.10;97263.00;;;;4952429;28;20203;-88
2023/01/29 05:21:56;;;;;;;2.87;2.67;;;6.50;67.30;6.10;97272.00;;;;4952736;28;20235;-88
2023/01/29 05:24:28;;;;;;;2.80;2.50;;;6.40;67.10;6.10;97265.00;;;;4951871;29;20207;-89
2023/01/29 05:29:52;;;;;;;4.67;3.20;;;6.50;67.30;6.10;97265.00;;;;4952802;29;20171;-88
2023/01/29 05:32:25;;;;;;;3.37;2.43;;;6.50;67.30;6.10;97268.00;;;;4952636;28;20283;-88
2023/01/29 05:34:52;;;;;;;4.30;3.10;;;6.40;67.10;6.10;97277.00;;;;4952788;28;20188;-89
2023/01/29 05:37:19;;;;;;;2.97;2.67;;;6.40;66.90;6.10;97265.00;;;;4955457;28;20223;-89
2023/01/29 05:39:48;;;;;;;2.67;2.47;;;6.40;67.00;6.10;97274.00;;;;4955132;28;20230;-89
2023/01/29 05:42:21;;;;;;;2.40;2.30;;;6.40;66.80;6.10;97274.00;;;;4953956;28;20284;-89
2023/01/29 05:44:53;;;;;;;2.73;2.53;;;6.40;66.60;6.10;97266.00;;;;4954728;28;20196;-88
2023/01/29 05:47:21;;;;;;;2.67;2.47;;;6.40;66.30;6.10;97265.00;;;;4954909;28;20200;-89
2023/01/29 05:49:49;;;;;;;3.33;2.83;;;6.40;66.20;6.10;97274.00;;;;4955378;28;20254;-89
2023/01/29 05:52:16;;;;;;;4.00;2.97;;;6.40;66.00;6.10;97271.00;;;;4954845;28;20244;-89
2023/01/29 05:54:43;;;;;;;4.37;2.90;;;6.40;66.20;6.10;97266.00;;;;4955054;28;20226;-89
2023/01/29 05:57:12;;;;;;;2.70;2.50;;;6.40;66.30;6.00;97269.00;;;;4954465;29;20236;-89
2023/01/29 05:59:39;;;;;;;2.80;2.60;;;6.40;66.40;6.00;97263.00;;;;4954616;28;20257;-89
2023/01/29 06:02:06;;;;;;;2.20;2.10;;;6.40;67.00;6.00;97267.00;;;;4955295;28;20227;-89
2023/01/29 06:04:34;;;;;;;4.97;2.20;;;6.40;66.20;6.00;97264.00;;;;4955378;29;20549;-89
2023/01/29 06:07:02;;;;;;;2.10;2.00;;;6.30;66.00;6.00;97268.00;;;;4954698;29;20611;-89
2023/01/29 06:09:29;;;;;;;2.90;2.30;;;6.30;65.70;5.90;97271.00;;;;4955574;29;20621;-88
2023/01/29 06:11:57;;;;;;;2.27;1.90;;;6.30;65.40;5.90;97267.00;;;;4955744;28;20311;-89
2023/01/29 06:14:25;;;;;;;2.07;1.87;;;6.30;65.70;5.90;97272.00;;;;4955548;29;20653;-89
2023/01/29 06:16:53;;;;;;;4.93;2.30;;;6.30;65.50;5.90;97266.00;;;;4955182;29;20277;-89
2023/01/29 06:19:20;;;;;;;5.43;2.53;;;6.30;65.70;5.90;97264.00;;;;4955884;28;20208;-89
2023/01/29 06:21:48;;;;;;;2.27;2.17;;;6.40;65.90;5.90;97261.00;;;;4953151;28;20220;-89
2023/01/29 06:24:15;;;;;;;2.50;2.30;;;6.30;65.90;5.90;97266.00;;;;4953361;28;20235;-89
2023/01/29 06:26:42;;;;;;;3.30;2.57;;;6.20;65.70;5.90;97265.00;;;;4952705;29;20626;-87
2023/01/29 06:29:10;;;;;;;2.43;2.23;;;6.20;65.40;5.90;97268.00;;;;4953245;28;20212;-88
2023/01/29 06:31:39;;;;;;;2.23;2.13;;;6.20;65.40;5.90;97269.00;;;;4954754;28;20302;-88
2023/01/29 06:34:06;;;;;;;2.93;2.47;;;6.30;65.50;5.90;97264.00;;;;4954317;28;20207;-89
2023/01/29 06:36:34;;;;;;;4.73;2.67;;;6.30;65.70;6.00;97256.00;;;;4953664;28;20259;-88
2023/01/29 06:39:01;;;;;;;3.23;3.03;;;6.30;65.90;6.00;97266.00;;;;4954993;28;20239;-88
2023/01/29 06:41:28;;;;;;;2.73;2.53;;;6.20;65.90;6.00;97269.00;;;;4954570;28;20274;-88
2023/01/29 06:43:55;;;;;;;6.33;2.53;;;6.30;66.00;6.00;97272.00;;;;4954535;28;20254;-88
2023/01/29 06:46:23;;;;;;;2.90;2.70;;;6.30;65.90;6.00;97267.00;;;;4953238;28;20289;-88
2023/01/29 06:48:51;;;;;;;11.93;3.50;;;6.30;66.00;6.00;97271.00;;;;4952019;28;20299;-88
2023/01/29 06:51:20;;;;;;;2.90;2.70;;;6.30;65.90;6.00;97271.00;;;;4952888;28;20670;-88
2023/01/29 06:53:47;;;;;;;6.73;2.87;;;6.30;66.00;6.00;97275.00;;;;4952290;29;20288;-88
2023/01/29 06:56:14;;;;;;;3.03;2.83;;;6.30;66.00;6.00;97264.00;;;;4952161;28;20228;-87
2023/01/29 06:58:46;;;;;;;2.93;2.73;;;6.30;65.90;6.00;97254.00;;;;4952932;28;20645;-87
2023/01/29 07:01:14;;;;;;;2.83;2.63;;;6.30;65.50;6.00;97261.00;;;;4952959;28;20256;-87
2023/01/29 07:03:42;;;;;;;3.20;3.00;;;6.30;65.40;6.00;97255.00;;;;4952458;29;20253;-88
2023/01/29 07:06:11;;;;;;;12.53;3.10;;;6.30;65.50;6.00;97255.00;;;;4952607;29;20219;-88
2023/01/29 07:08:39;;;;;;;3.37;3.07;;;6.30;65.60;6.00;97232.00;;;;4951976;29;20275;-88
2023/01/29 07:11:12;;;;;;;3.47;2.70;;;6.30;66.10;6.00;97235.00;;;;4952591;28;20778;-88
2023/01/29 07:13:42;;;;;;;3.13;2.93;;;6.30;65.60;6.00;97239.00;;;;4954723;28;20212;-89
2023/01/29 07:16:12;;;;;;;3.27;2.93;;;6.30;65.70;6.00;97233.00;;;;4954669;29;20232;-88
2023/01/29 07:18:39;;;;;;;4.03;3.13;;;6.30;65.60;6.00;97233.00;;;;4954068;29;20258;-86
2023/01/29 07:21:07;;;;;;;2.80;2.60;;;6.30;65.60;6.10;97234.00;;;;4951322;28;20211;-87
2023/01/29 07:23:36;;;;;;;5.63;3.10;;;6.30;65.90;6.10;97234.00;;;;4990573;28;20189;-87
2023/01/29 07:26:05;;;;;;;4.13;3.67;;;6.40;66.00;6.20;97231.00;;;;5013708;28;20214;-87
2023/01/29 07:28:36;;;;;;;5.60;4.40;;;6.40;65.90;6.30;97228.00;;;;4951541;29;20613;-85
2023/01/29 07:31:05;;;;;;;3.70;3.50;;;6.40;65.60;6.30;97228.00;;;;4952191;28;20485;-87
2023/01/29 07:33:32;;;;;;;4.73;3.57;;;6.50;65.50;6.40;97233.00;;;;4950944;29;20228;-87
2023/01/29 07:35:59;;;;;;;3.00;2.80;;;6.50;65.50;6.40;97236.00;;;;4950103;29;20259;-86
2023/01/29 07:38:32;;;;;;;5.80;3.57;;;6.50;65.10;6.40;97230.00;;;;4950583;29;20243;-86
2023/01/29 07:41:03;;;;;;;4.83;4.43;;;6.50;64.90;6.50;97238.00;;;;4951121;28;20231;-84
2023/01/29 07:43:31;;;;;;;4.27;3.93;;;6.50;65.20;6.50;97245.00;;;;4978065;28;20197;-85
2023/01/29 07:46:03;;;;;;;4.17;3.87;;;6.50;65.30;6.50;97242.00;;;;4944320;28;20204;-85
2023/01/29 07:48:30;;;;;;;7.00;3.97;;;6.60;65.10;6.50;97248.00;;;;4951450;29;20254;-87
2023/01/29 07:50:58;;;;;;;4.67;3.80;;;6.60;65.10;6.60;97246.00;;;;4950938;28;20279;-89
2023/01/29 07:53:25;;;;;;;4.23;3.83;;;6.60;65.30;6.60;97241.00;;;;4951942;28;20235;-87
2023/01/29 07:55:53;;;;;;;7.60;4.47;;;6.60;65.50;6.60;97243.00;;;;4952123;28;20651;-88
2023/01/29 07:58:21;;;;;;;5.30;4.80;;;6.70;65.50;6.70;97242.00;;;;4951908;29;20234;-87
2023/01/29 08:00:49;;;;;;;5.57;5.07;;;6.70;65.60;6.70;97249.00;;;;4951726;28;20291;-90
2023/01/29 08:03:19;;;;;;;4.30;3.90;;;6.70;65.40;6.70;97252.00;;;;4950181;29;20196;-88
2023/01/29 08:05:47;;;;;;;7.50;4.13;;;6.70;65.10;6.70;97252.00;;;;4951485;29;20250;-86
2023/01/29 08:08:15;;;;;;;6.83;5.40;;;6.80;65.20;6.80;97249.00;;;;4951272;29;20200;-86
2023/01/29 08:10:42;;;;;;;12.80;7.30;;;6.80;65.40;6.80;97256.00;;;;4951307;29;20228;-86
2023/01/29 08:13:10;;;;;;;15.43;5.23;;;6.80;65.40;6.80;97258.00;;;;4951224;28;20270;-89
2023/01/29 08:15:38;;;;;;;5.00;4.50;;;6.90;65.50;6.90;97269.00;;;;4950959;29;20220;-87
2023/01/29 08:18:06;;;;;;;6.63;5.97;;;6.90;65.40;6.90;97273.00;;;;4951721;28;20200;-88
2023/01/29 08:20:33;;;;;;;5.33;4.83;;;6.90;65.10;6.90;97271.00;;;;4951467;29;20644;-86
2023/01/29 08:23:02;;;;;;;5.33;4.90;;;6.90;64.90;7.00;97276.00;;;;4951489;28;20688;-85
2023/01/29 08:25:29;;;;;;;4.93;4.53;;;7.00;64.90;7.00;97275.00;;;;4951500;29;20228;-88
2023/01/29 08:27:58;;;;;;;5.70;3.87;;;7.00;65.10;7.00;97274.00;;;;4951418;29;20196;-88
2023/01/29 08:30:25;;;;;;;4.17;3.87;;;7.00;64.90;7.00;97269.00;;;;4950993;28;20242;-86
2023/01/29 08:32:54;;;;;;;3.80;3.50;;;7.00;64.80;7.10;97273.00;;;;4950842;28;20307;-86
2023/01/29 08:35:21;;;;;;;3.77;3.30;;;7.10;64.70;7.10;97285.00;;;;4950034;28;20193;-85
2023/01/29 08:38:00;;;;;;;3.93;3.63;;;7.10;64.70;7.10;97298.00;;;;4949771;28;20312;-85
2023/01/29 08:40:29;;;;;;;4.30;3.90;;;7.10;64.40;7.10;97298.00;;;;4950833;28;20246;-85
2023/01/29 08:42:58;;;;;;;4.03;3.63;;;7.20;64.40;7.10;97308.00;;;;4950079;28;20243;-85
2023/01/29 08:45:25;;;;;;;4.27;3.87;;;7.20;64.30;7.10;97307.00;;;;4949705;28;20798;-88
2023/01/29 08:47:54;;;;;;;3.60;3.30;;;7.20;64.30;7.10;97313.00;;;;4949622;29;20253;-87
2023/01/29 08:50:21;;;;;;;3.40;3.10;;;7.20;64.00;7.10;97316.00;;;;4951537;28;20287;-88
2023/01/29 08:52:49;;;;;;;3.50;3.20;;;7.20;63.80;7.10;97316.00;;;;4951917;28;20263;-88
2023/01/29 08:55:16;;;;;;;3.80;3.50;;;7.20;63.60;7.10;97307.00;;;;4952077;28;20553;-90
2023/01/29 08:57:45;;;;;;;4.40;4.00;;;7.20;63.50;7.10;97307.00;;;;4951888;28;20278;-89
2023/01/29 09:00:14;;;;;;;4.60;4.20;;;7.20;63.60;7.10;97309.00;;;;4951736;28;20542;-88
2023/01/29 09:02:41;;;;;;;4.47;3.80;;;7.20;63.60;7.10;97309.00;;;;4951500;28;20236;-89
2023/01/29 09:05:11;;;;;;;3.57;3.27;;;7.20;63.60;7.10;97316.00;;;;4951519;29;20231;-89
2023/01/29 09:07:41;;;;;;;4.10;3.80;;;7.20;63.70;7.10;97320.00;;;;4947832;29;20227;-89
2023/01/29 09:10:31;;;;;;;4.17;3.80;;;7.30;63.50;7.10;97316.00;;;;4951267;28;20212;-87
2023/01/29 09:13:13;;;;;;;6.60;3.70;;;7.20;63.30;7.10;97326.00;;;;4954697;28;20301;-88
2023/01/29 09:15:41;;;;;;;17.27;4.57;;;7.20;63.30;7.10;97325.00;;;;4960938;28;20239;-87
2023/01/29 09:18:08;;;;;;;4.87;4.43;;;7.20;63.60;7.10;97320.00;;;;4963601;28;20652;-87
2023/01/29 09:20:39;;;;;;;4.50;4.10;;;7.20;64.00;7.10;97318.00;;;;4960329;28;20208;-88
2023/01/29 09:23:11;;;;;;;8.40;4.23;;;7.20;63.90;7.10;97315.00;;;;4941548;28;20749;-87
2023/01/29 09:25:39;;;;;;;4.50;4.10;;;7.20;63.90;7.10;97331.00;;;;4958659;28;20246;-86
2023/01/29 09:28:20;;;;;;;;;;;;;;;;;;;;;
2023/01/29 09:30:51;;;;;;;3.27;2.97;;;7.20;63.50;7.10;97331.00;;;;4960860;28;20210;-87
2023/01/29 09:33:18;;;;;;;4.03;3.63;;;7.20;63.80;7.10;97333.00;;;;4951179;28;20682;-86
2023/01/29 09:35:49;;;;;;;4.50;4.20;;;7.20;62.90;7.10;97342.00;;;;4951431;28;20196;-86
2023/01/29 09:38:32;;;;;;;4.07;3.77;;;7.20;62.80;7.00;97343.00;;;;4961540;28;20216;-87
2023/01/29 09:41:14;;;;;;;4.10;3.80;;;7.20;62.80;7.00;97337.00;;;;4960421;28;20212;-88
2023/01/29 09:43:49;;;;;;;4.27;3.87;;;7.20;62.90;7.10;97338.00;;;;4977151;28;20295;-87
2023/01/29 09:46:35;;;;;;;4.00;3.70;;;7.20;63.20;7.10;97332.00;;;;4958186;28;20212;-87
2023/01/29 09:49:11;;;;;;;3.53;3.23;;;7.20;63.30;7.10;97335.00;;;;4945558;28;20209;-88
2023/01/29 09:51:46;;;;;;;3.10;2.80;;;7.20;63.10;7.20;97342.00;;;;4941941;28;20365;-87
2023/01/29 09:54:21;;;;;;;3.80;3.50;;;7.30;63.10;7.20;97342.00;;;;4957714;28;20232;-88
2023/01/29 09:56:57;;;;;;;4.40;4.00;;;7.30;62.90;7.20;97341.00;;;;4953000;29;20247;-88
2023/01/29 09:59:31;;;;;;;4.37;4.07;;;7.30;62.70;7.30;97347.00;;;;4961961;28;20195;-88
2023/01/29 10:02:10;;;;;;;3.87;3.57;;;7.30;62.70;7.30;97349.00;;;;4947049;28;20224;-89
2023/01/29 10:05:03;;;;;;;11.50;3.83;;;7.40;63.50;7.30;97334.00;;;;4952434;28;20218;-89
2023/01/29 10:08:07;;;;;;;4.33;3.80;;;7.40;63.00;7.30;97335.00;;;;4953479;28;20787;-88
2023/01/29 10:10:49;;;;;;;5.60;3.77;;;7.40;63.00;7.30;97330.00;;;;4953083;28;20556;-88
2023/01/29 10:13:30;;;;;;;4.00;3.67;;;7.40;63.00;7.30;97325.00;;;;4952873;29;20246;-85
2023/01/29 10:16:22;;;;;;;3.93;3.60;;;7.40;62.90;7.30;97334.00;;;;4948556;28;20215;-87
2023/01/29 10:19:32;;;;;;;3.70;3.20;;;7.40;62.50;7.30;97325.00;;;;4945797;28;20582;-89
2023/01/29 10:22:44;;;;;;;3.43;3.13;;;7.40;62.30;7.20;97321.00;;;;4950991;28;20220;-89
2023/01/29 10:25:16;;;;;;;3.90;3.60;;;7.40;61.80;7.20;97321.00;;;;4950770;28;20331;-88
2023/01/29 10:27:53;;;;;;;4.27;3.63;;;7.40;62.10;7.20;97326.00;;;;4941043;28;20215;-88
2023/01/29 10:30:35;;;;;;;4.03;3.73;;;7.30;61.90;7.20;97325.00;;;;4952213;29;20249;-89
2023/01/29 10:33:05;;;;;;;5.30;3.80;;;7.30;62.00;7.20;97322.00;;;;4952123;28;20274;-86
2023/01/29 10:35:39;;;;;;;5.27;3.93;;;7.30;62.30;7.20;97324.00;;;;4951786;29;20204;-88
2023/01/29 10:38:28;;;;;;;15.70;4.37;;;7.30;62.60;7.30;97313.00;;;;5034417;28;20231;-89
2023/01/29 10:41:12;;;;;;;3.80;3.50;;;7.30;62.70;7.30;97315.00;;;;5053247;28;20181;-88
2023/01/29 10:43:58;;;;;;;7.70;3.53;;;7.40;62.90;7.30;97311.00;;;;4959659;28;20247;-88
2023/01/29 10:46:49;;;;;;;5.30;3.73;;;7.40;62.80;7.30;97321.00;;;;4944884;28;20579;-87
2023/01/29 10:49:41;;;;;;;3.67;3.37;;;7.40;62.70;7.30;97317.00;;;;4939386;28;20281;-86
2023/01/29 10:52:30;;;;;;;3.63;3.10;;;7.40;62.50;7.30;97307.00;;;;4981864;22;20253;-82
2023/01/29 10:55:20;;;;;;;7.60;3.83;;;7.40;62.20;7.40;97304.00;;;;4977236;28;20191;-83
2023/01/29 10:58:02;;;;;;;3.40;3.17;;;7.40;62.10;7.40;97304.00;;;;4970530;28;20986;-83
2023/01/29 11:00:38;;;;;;;10.23;3.60;;;7.50;62.00;7.40;97304.00;;;;4972593;28;20230;-83
2023/01/29 11:03:17;;;;;;;4.57;3.27;;;7.40;61.80;7.40;97293.00;;;;4968590;28;20313;-82
2023/01/29 11:05:55;;;;;;;3.63;3.13;;;7.40;61.80;7.40;97289.00;;;;4973133;28;20227;-83
2023/01/29 11:08:27;;;;;;;3.13;2.93;;;7.50;62.00;7.50;97287.00;;;;4975578;28;20196;-82
2023/01/29 11:11:07;;;;;;;3.10;2.90;;;7.40;61.80;7.50;97293.00;;;;4970473;28;20210;-80
2023/01/29 11:13:42;;;;;;;5.00;3.60;;;7.50;61.70;7.60;97289.00;;;;4974214;28;20223;-81
2023/01/29 11:16:10;;;;;;;3.77;3.47;;;7.50;61.80;7.60;97281.00;;;;4974521;28;20233;-81
2023/01/29 11:19:00;;;;;;;4.70;3.57;;;7.50;62.00;7.60;97281.00;;;;4977966;28;20223;-81
2023/01/29 11:21:30;;;;;;;6.33;3.47;;;7.60;61.30;7.60;97286.00;;;;4985166;28;20766;-79
2023/01/29 11:24:15;;;;;;;6.53;3.20;;;7.60;61.60;7.60;97280.00;;;;4965256;28;20206;-81
2023/01/29 11:26:48;;;;;;;3.20;2.90;;;7.60;61.60;7.60;97270.00;;;;4979344;28;20211;-80
2023/01/29 11:29:41;;;;;;;3.80;3.40;;;7.60;61.60;7.70;97271.00;;;;4973800;28;20192;-82
2023/01/29 11:32:15;;;;;;;7.53;3.40;;;7.60;61.40;7.70;97263.00;;;;4962142;28;20303;-81
2023/01/29 11:35:01;;;;;;;4.27;3.97;;;7.60;61.70;7.70;97268.00;;;;4970074;28;20295;-81
2023/01/29 11:37:39;;;;;;;10.57;4.20;;;7.70;61.20;7.80;97257.00;;;;4968690;28;20254;-80
2023/01/29 11:40:38;;;;;;;10.63;4.07;;;7.70;61.20;7.80;97244.00;;;;4997585;28;20189;-84
2023/01/29 11:43:28;;;;;;;4.27;3.47;;;7.70;61.00;7.80;97227.00;;;;4997173;28;20302;-82
2023/01/29 11:46:00;;;;;;;5.90;3.97;;;7.80;61.10;7.80;97212.00;;;;4963738;28;20199;-85
2023/01/29 11:48:41;;;;;;;4.23;3.53;;;7.80;61.40;7.90;97207.00;;;;4971558;28;20215;-86
2023/01/29 11:51:20;;;;;;;3.73;3.37;;;7.80;61.20;8.00;97209.00;;;;4967837;28;20243;-84
2023/01/29 11:53:54;;;;;;;4.10;3.40;;;7.80;61.00;8.00;97202.00;;;;4969973;28;20234;-83
2023/01/29 11:56:28;;;;;;;3.43;3.17;;;7.90;60.70;8.00;97211.00;;;;4968967;28;20257;-84
2023/01/29 11:58:58;;;;;;;3.60;3.40;;;7.90;60.50;8.00;97209.00;;;;4952801;28;20306;-84
2023/01/29 12:01:35;;;;;;;3.73;3.43;;;7.90;60.10;8.00;97217.00;;;;4963768;28;20216;-85
2023/01/29 12:04:11;;;;;;;9.67;3.80;;;8.00;60.10;8.00;97212.00;;;;4960859;28;20236;-84
2023/01/29 12:06:44;;;;;;;3.60;3.30;;;8.00;60.20;8.00;97210.00;;;;4962613;28;20235;-83
2023/01/29 12:09:19;;;;;;;6.30;4.00;;;8.00;60.10;8.00;97213.00;;;;4969526;28;20196;-87
2023/01/29 12:11:46;;;;;;;3.90;3.60;;;7.90;60.10;8.00;97221.00;;;;4967930;28;20276;-86
2023/01/29 12:14:34;;;;;;;9.47;4.07;;;8.00;60.00;8.00;97228.00;;;;4971554;28;20200;-86